PAF5320 RPVM-RPVP
Flight info
| Callsign | PAF5320 |
|---|---|
| Flight time | N/A |
| Altitude | 8000 |
| Route | MCT DCT GAYUD W291 KALAH DCT PR |
| Aircraft | C208/L-SDFGR/C |
Departure
| Time | N/A |
|---|---|
| Airport | Mactan Cebu International Airport (RPVM) |
Arrival
| Time | 2026-05-07 11:20 |
|---|---|
| Airport | Puerto Princesa International Airport / PAF Antonio Bautista Air Base (RPVP) |
| Time | Latitude | Longitude | Altitude | Speed | Heading |
|---|---|---|---|---|---|
| 2026-05-07 11:07 | 9.74530 | 119.13025 | 4001 ft | 163 kts | 270° |
| 2026-05-07 11:07 | 9.74486 | 119.11884 | 4003 ft | 162 kts | 269° |
| 2026-05-07 11:07 | 9.74440 | 119.10756 | 3998 ft | 160 kts | 269° |
| 2026-05-07 11:08 | 9.74394 | 119.09621 | 4004 ft | 161 kts | 269° |
| 2026-05-07 11:08 | 9.74364 | 119.08872 | 4003 ft | 160 kts | 270° |
| 2026-05-07 11:08 | 9.74302 | 119.07378 | 4004 ft | 161 kts | 269° |
| 2026-05-07 11:08 | 9.74257 | 119.06242 | 4005 ft | 161 kts | 270° |
| 2026-05-07 11:09 | 9.74214 | 119.05106 | 4003 ft | 161 kts | 270° |
| 2026-05-07 11:09 | 9.74080 | 119.01857 | 4001 ft | 160 kts | 270° |
| 2026-05-07 11:10 | 9.74035 | 119.00728 | 4002 ft | 161 kts | 270° |
| 2026-05-07 11:10 | 9.73989 | 118.99603 | 4005 ft | 162 kts | 269° |
| 2026-05-07 11:10 | 9.73943 | 118.98465 | 4009 ft | 162 kts | 270° |
| 2026-05-07 11:10 | 9.73898 | 118.97309 | 3886 ft | 168 kts | 269° |
| 2026-05-07 11:11 | 9.73852 | 118.96099 | 3662 ft | 174 kts | 270° |
| 2026-05-07 11:11 | 9.73804 | 118.94862 | 3428 ft | 176 kts | 270° |
| 2026-05-07 11:11 | 9.73756 | 118.93613 | 3195 ft | 178 kts | 269° |
| 2026-05-07 11:11 | 9.73714 | 118.92355 | 2954 ft | 179 kts | 270° |
| 2026-05-07 11:12 | 9.73677 | 118.91133 | 2714 ft | 160 kts | 271° |
| 2026-05-07 11:12 | 9.73646 | 118.90070 | 2499 ft | 147 kts | 270° |
| 2026-05-07 11:12 | 9.73598 | 118.89071 | 2489 ft | 139 kts | 269° |
| 2026-05-07 11:12 | 9.73534 | 118.88108 | 2493 ft | 136 kts | 268° |
| 2026-05-07 11:13 | 9.73564 | 118.87168 | 2488 ft | 131 kts | 285° |
| 2026-05-07 11:13 | 9.73694 | 118.86252 | 2369 ft | 132 kts | 277° |
| 2026-05-07 11:13 | 9.73773 | 118.85340 | 2140 ft | 130 kts | 277° |
| 2026-05-07 11:13 | 9.73829 | 118.84463 | 1865 ft | 119 kts | 277° |
| 2026-05-07 11:14 | 9.73885 | 118.83634 | 1509 ft | 117 kts | 275° |
| 2026-05-07 11:14 | 9.73903 | 118.82816 | 1159 ft | 115 kts | 277° |
| 2026-05-07 11:14 | 9.73958 | 118.82034 | 956 ft | 105 kts | 275° |
| 2026-05-07 11:14 | 9.73945 | 118.81232 | 1056 ft | 116 kts | 271° |
| 2026-05-07 11:15 | 9.73998 | 118.80441 | 1085 ft | 110 kts | 288° |
| 2026-05-07 11:15 | 9.74287 | 118.79729 | 1070 ft | 109 kts | 306° |
| 2026-05-07 11:15 | 9.74715 | 118.79100 | 1087 ft | 106 kts | 311° |
| 2026-05-07 11:15 | 9.74891 | 118.78864 | 1100 ft | 104 kts | 313° |
| 2026-05-07 11:16 | 9.75337 | 118.78282 | 1099 ft | 106 kts | 311° |
| 2026-05-07 11:16 | 9.75783 | 118.77695 | 1037 ft | 102 kts | 307° |
| 2026-05-07 11:16 | 9.76046 | 118.77034 | 1061 ft | 103 kts | 281° |
| 2026-05-07 11:16 | 9.76066 | 118.76279 | 1066 ft | 111 kts | 268° |
| 2026-05-07 11:17 | 9.76050 | 118.75501 | 1085 ft | 110 kts | 273° |
| 2026-05-07 11:17 | 9.76102 | 118.74722 | 1076 ft | 112 kts | 277° |
| 2026-05-07 11:17 | 9.76150 | 118.73986 | 1062 ft | 102 kts | 274° |
| 2026-05-07 11:17 | 9.76189 | 118.73277 | 1031 ft | 100 kts | 276° |
| 2026-05-07 11:18 | 9.76202 | 118.72584 | 1026 ft | 101 kts | 273° |
| 2026-05-07 11:19 | 9.74335 | 118.72590 | 909 ft | 88 kts | 88° |
| 2026-05-07 11:19 | 9.74323 | 118.73182 | 750 ft | 77 kts | 88° |
| 2026-05-07 11:19 | 9.74292 | 118.73737 | 588 ft | 85 kts | 91° |
| 2026-05-07 11:20 | 9.74273 | 118.74339 | 369 ft | 83 kts | 96° |
| 2026-05-07 11:20 | 9.74251 | 118.74861 | 100 ft | 65 kts | 91° |
| 2026-05-07 11:20 | 9.74236 | 118.75287 | 73 ft | 51 kts | 92° |
| 2026-05-07 11:20 | 9.74222 | 118.75592 | 65 ft | 37 kts | 93° |
| 2026-05-07 11:21 | 9.74212 | 118.75820 | 56 ft | 22 kts | 92° |
| 2026-05-07 11:21 | 9.74196 | 118.75918 | 54 ft | 9 kts | 58° |
| 2026-05-07 11:21 | 9.74211 | 118.75892 | 58 ft | 7 kts | 268° |
| 2026-05-07 11:21 | 9.74212 | 118.75827 | 57 ft | 13 kts | 275° |
| 2026-05-07 11:22 | 9.74262 | 118.75784 | 61 ft | 13 kts | 51° |
| 2026-05-07 11:22 | 9.74313 | 118.75823 | 60 ft | 2 kts | 20° |
| 2026-05-07 11:22 | 9.74318 | 118.75845 | 55 ft | 6 kts | 100° |
| 2026-05-07 11:22 | 9.74313 | 118.75900 | 57 ft | 10 kts | 68° |
| 2026-05-07 11:23 | 9.74304 | 118.75948 | 54 ft | 7 kts | 192° |
| 2026-05-07 11:23 | 9.74297 | 118.75929 | 54 ft | 2 kts | 313° |
| 2026-05-07 11:23 | 9.74303 | 118.75926 | 52 ft | 0 kts | 339° |